Time;durP1;ratioP1;P1;durP2;ratioP2;P2;SDS_P1;SDS_P2;PMS_P1;PMS_P2;Temp;Humidity;BMP_temperature;BMP_pressure;BME280_temperature;BME280_humidity;BME280_pressure;Samples;Min_cycle;Max_cycle;Signal;HPM_P1;HPM_P2
2023/09/02 00:00:10;;;;;;;0.20;0.20;;;;;;;;;;4864711;29;20045;-81
2023/09/02 00:02:36;;;;;;;0.00;0.00;;;;;;;;;;4849491;29;20057;-81
2023/09/02 00:05:02;;;;;;;0.05;0.00;;;;;;;;;;4864689;29;20056;-80
2023/09/02 00:07:29;;;;;;;0.10;0.10;;;;;;;;;;4880762;29;20059;-81
2023/09/02 00:09:55;;;;;;;0.00;0.00;;;;;;;;;;4864411;29;20104;-80
2023/09/02 00:12:21;;;;;;;0.22;0.22;;;;;;;;;;4880069;29;20049;-80
2023/09/02 00:14:47;;;;;;;0.00;0.00;;;;;;;;;;4864643;29;20108;-80
2023/09/02 00:17:13;;;;;;;0.00;0.00;;;;;;;;;;4880277;29;20355;-80
2023/09/02 00:19:40;;;;;;;0.00;0.00;;;;;;;;;;4880548;29;20049;-80
2023/09/02 00:22:06;;;;;;;0.00;0.00;;;;;;;;;;4880762;29;20406;-80
2023/09/02 00:24:33;;;;;;;0.10;0.00;;;;;;;;;;4880079;29;20189;-81
2023/09/02 00:27:00;;;;;;;0.00;0.00;;;;;;;;;;4881556;29;20072;-80
2023/09/02 00:29:26;;;;;;;0.00;0.00;;;;;;;;;;4880033;29;20056;-80
2023/09/02 00:31:52;;;;;;;0.10;0.00;;;;;;;;;;4879661;29;20049;-80
2023/09/02 00:34:18;;;;;;;0.10;0.03;;;;;;;;;;4864539;29;20096;-80
2023/09/02 00:36:44;;;;;;;0.00;0.00;;;;;;;;;;4879590;29;20057;-80
2023/09/02 00:39:10;;;;;;;0.03;0.00;;;;;;;;;;4879972;29;20490;-80
2023/09/02 00:41:38;;;;;;;0.00;0.00;;;;;;;;;;4881099;29;20052;-80
2023/09/02 00:44:05;;;;;;;0.13;0.10;;;;;;;;;;4879774;29;20550;-80
2023/09/02 00:46:31;;;;;;;0.00;0.00;;;;;;;;;;4880655;29;20052;-80
2023/09/02 00:48:57;;;;;;;0.00;0.00;;;;;;;;;;4880432;29;20080;-80
2023/09/02 00:51:23;;;;;;;0.00;0.00;;;;;;;;;;4864249;29;20053;-80
2023/09/02 00:53:49;;;;;;;0.30;0.00;;;;;;;;;;4865009;29;20371;-82
2023/09/02 00:56:15;;;;;;;0.00;0.00;;;;;;;;;;4882128;29;20088;-80
2023/09/02 00:58:42;;;;;;;0.00;0.00;;;;;;;;;;4883321;29;20478;-80
2023/09/02 01:01:09;;;;;;;0.03;0.03;;;;;;;;;;4868078;29;20057;-80
2023/09/02 01:03:36;;;;;;;0.00;0.00;;;;;;;;;;4883459;29;20060;-80
2023/09/02 01:06:05;;;;;;;0.00;0.00;;;;;;;;;;4883265;29;20075;-80
2023/09/02 01:08:31;;;;;;;0.00;0.00;;;;;;;;;;4884038;29;20049;-80
2023/09/02 01:11:01;;;;;;;0.35;0.00;;;;;;;;;;4883013;29;20059;-80
2023/09/02 01:13:28;;;;;;;0.00;0.00;;;;;;;;;;4883195;29;20052;-80
2023/09/02 01:15:54;;;;;;;0.00;0.00;;;;;;;;;;4882855;29;20053;-79
2023/09/02 01:18:24;;;;;;;0.00;0.00;;;;;;;;;;4883783;29;20045;-80
2023/09/02 01:21:09;;;;;;;0.00;0.00;;;;;;;;;;4883641;29;20052;-80
2023/09/02 01:23:55;;;;;;;0.05;0.03;;;;;;;;;;4883778;29;20052;-80
2023/09/02 01:26:21;;;;;;;;;;;;;;;;;;4883153;29;20138;-80
2023/09/02 01:28:49;;;;;;;0.00;0.00;;;;;;;;;;4883445;29;19963;-80
2023/09/02 01:31:17;;;;;;;0.00;0.00;;;;;;;;;;4868205;29;20049;-80
2023/09/02 01:33:43;;;;;;;0.00;0.00;;;;;;;;;;4882723;29;20045;-79
2023/09/02 01:36:12;;;;;;;0.00;0.00;;;;;;;;;;4881802;29;20143;-80
2023/09/02 01:38:40;;;;;;;0.03;0.00;;;;;;;;;;4868545;29;20433;-80
2023/09/02 01:41:07;;;;;;;0.00;0.00;;;;;;;;;;4882846;29;20055;-80
2023/09/02 01:43:34;;;;;;;0.30;0.15;;;;;;;;;;4882600;29;20055;-81
2023/09/02 01:46:00;;;;;;;0.00;0.00;;;;;;;;;;4882628;29;20403;-80
2023/09/02 01:48:27;;;;;;;0.00;0.00;;;;;;;;;;4866852;29;20045;-80
2023/09/02 01:50:54;;;;;;;0.10;0.00;;;;;;;;;;4851706;29;20053;-80
2023/09/02 01:53:20;;;;;;;0.10;0.08;;;;;;;;;;4866852;29;20060;-80
2023/09/02 01:55:46;;;;;;;0.00;0.00;;;;;;;;;;4882168;29;20482;-79
2023/09/02 01:58:12;;;;;;;0.00;0.00;;;;;;;;;;4881971;29;20049;-80
2023/09/02 02:00:39;;;;;;;0.10;0.00;;;;;;;;;;4867271;29;20136;-80
2023/09/02 02:03:08;;;;;;;0.08;0.00;;;;;;;;;;4866884;29;20056;-80
2023/09/02 02:05:44;;;;;;;0.00;0.00;;;;;;;;;;4882046;29;20049;-80
2023/09/02 02:08:17;;;;;;;0.00;0.00;;;;;;;;;;4882397;29;20056;-80
2023/09/02 02:10:43;;;;;;;0.28;0.00;;;;;;;;;;4866305;29;20421;-80
2023/09/02 02:13:09;;;;;;;0.03;0.03;;;;;;;;;;4866145;29;20385;-80
2023/09/02 02:15:35;;;;;;;0.40;0.10;;;;;;;;;;4882469;29;20049;-80
2023/09/02 02:18:01;;;;;;;0.10;0.10;;;;;;;;;;4882033;29;20051;-80
2023/09/02 02:20:31;;;;;;;0.00;0.00;;;;;;;;;;4867303;29;20060;-80
2023/09/02 02:22:57;;;;;;;0.05;0.00;;;;;;;;;;4881790;29;20052;-80
2023/09/02 02:25:24;;;;;;;0.00;0.00;;;;;;;;;;4882702;29;20053;-80
2023/09/02 02:27:50;;;;;;;0.00;0.00;;;;;;;;;;4882159;29;20411;-80
2023/09/02 02:30:16;;;;;;;0.00;0.00;;;;;;;;;;4881734;29;20053;-80
2023/09/02 02:32:42;;;;;;;0.00;0.00;;;;;;;;;;4851747;29;20053;-80
2023/09/02 02:35:09;;;;;;;0.00;0.00;;;;;;;;;;4865979;29;20482;-80
2023/09/02 02:37:35;;;;;;;0.10;0.00;;;;;;;;;;4880810;29;20184;-80
2023/09/02 02:40:01;;;;;;;0.00;0.00;;;;;;;;;;4881498;29;20052;-80
2023/09/02 02:42:27;;;;;;;0.00;0.00;;;;;;;;;;4881638;29;20056;-80
2023/09/02 02:44:53;;;;;;;0.00;0.00;;;;;;;;;;4881912;29;20508;-80
2023/09/02 02:47:20;;;;;;;0.10;0.00;;;;;;;;;;4882203;29;20092;-80
2023/09/02 02:49:46;;;;;;;0.00;0.00;;;;;;;;;;4866459;29;20049;-80
2023/09/02 02:52:12;;;;;;;0.00;0.00;;;;;;;;;;4881407;29;20053;-80
2023/09/02 02:54:38;;;;;;;0.00;0.00;;;;;;;;;;4865907;29;20116;-80
2023/09/02 02:57:05;;;;;;;0.10;0.10;;;;;;;;;;4865875;29;20509;-80
2023/09/02 02:59:31;;;;;;;0.10;0.10;;;;;;;;;;4866656;29;20060;-80
2023/09/02 03:01:57;;;;;;;0.00;0.00;;;;;;;;;;4881177;29;20049;-80
2023/09/02 03:04:23;;;;;;;0.00;0.00;;;;;;;;;;4850429;29;20056;-80
2023/09/02 03:06:49;;;;;;;0.00;0.00;;;;;;;;;;4865659;29;20066;-80
2023/09/02 03:09:15;;;;;;;0.00;0.00;;;;;;;;;;4865570;29;20586;-79
2023/09/02 03:11:41;;;;;;;0.08;0.00;;;;;;;;;;4880442;29;20081;-80
2023/09/02 03:14:08;;;;;;;0.00;0.00;;;;;;;;;;4880839;29;20386;-80
2023/09/02 03:16:34;;;;;;;0.00;0.00;;;;;;;;;;4880757;29;20451;-80
2023/09/02 03:19:00;;;;;;;2.13;0.10;;;;;;;;;;4865184;29;20053;-80
2023/09/02 03:21:26;;;;;;;0.10;0.10;;;;;;;;;;4881013;29;20053;-80
2023/09/02 03:23:52;;;;;;;0.10;0.10;;;;;;;;;;4880763;29;20074;-80
2023/09/02 03:26:20;;;;;;;0.20;0.20;;;;;;;;;;4881611;29;20490;-80
2023/09/02 03:28:46;;;;;;;0.00;0.00;;;;;;;;;;4865104;29;20048;-80
2023/09/02 03:31:12;;;;;;;0.00;0.00;;;;;;;;;;4865466;29;20513;-80
2023/09/02 03:33:38;;;;;;;0.00;0.00;;;;;;;;;;4879776;29;20561;-80
2023/09/02 03:36:05;;;;;;;0.00;0.00;;;;;;;;;;4879516;29;20533;-80
2023/09/02 03:38:31;;;;;;;0.10;0.10;;;;;;;;;;4880366;29;20510;-80
2023/09/02 03:40:57;;;;;;;0.10;0.00;;;;;;;;;;4865017;29;20494;-80
2023/09/02 03:43:23;;;;;;;0.00;0.00;;;;;;;;;;4880522;29;20045;-80
2023/09/02 03:45:49;;;;;;;0.15;0.00;;;;;;;;;;4880902;29;20049;-80
2023/09/02 03:48:19;;;;;;;0.30;0.20;;;;;;;;;;4864754;29;20056;-80
2023/09/02 03:51:05;;;;;;;0.10;0.00;;;;;;;;;;4881380;29;20487;-80
2023/09/02 03:53:34;;;;;;;0.00;0.00;;;;;;;;;;4880293;29;20108;-80
2023/09/02 03:56:00;;;;;;;0.00;0.00;;;;;;;;;;4880089;29;20069;-79
2023/09/02 03:58:28;;;;;;;0.00;0.00;;;;;;;;;;4849315;29;20128;-80
2023/09/02 04:00:54;;;;;;;0.00;0.00;;;;;;;;;;4880837;29;20474;-79
2023/09/02 04:03:21;;;;;;;0.00;0.00;;;;;;;;;;4881095;29;20086;-79
2023/09/02 04:05:47;;;;;;;0.00;0.00;;;;;;;;;;4879791;29;20405;-79
2023/09/02 04:08:15;;;;;;;0.00;0.00;;;;;;;;;;4849012;29;20050;-80
2023/09/02 04:10:41;;;;;;;0.25;0.05;;;;;;;;;;4880894;29;20185;-80
2023/09/02 04:13:08;;;;;;;0.00;0.00;;;;;;;;;;4879919;29;20096;-80
2023/09/02 04:15:34;;;;;;;0.00;0.00;;;;;;;;;;4865054;29;20093;-80
2023/09/02 04:18:00;;;;;;;0.00;0.00;;;;;;;;;;4879649;29;20482;-79
2023/09/02 04:20:26;;;;;;;0.00;0.00;;;;;;;;;;4865000;29;20057;-80
2023/09/02 04:22:53;;;;;;;0.00;0.00;;;;;;;;;;4865100;29;20116;-79
2023/09/02 04:25:19;;;;;;;0.00;0.00;;;;;;;;;;4879532;29;20100;-79
2023/09/02 04:27:46;;;;;;;0.15;0.15;;;;;;;;;;4879552;29;20057;-80
2023/09/02 04:30:12;;;;;;;0.00;0.00;;;;;;;;;;4864898;29;20079;-79
2023/09/02 04:32:38;;;;;;;0.00;0.00;;;;;;;;;;4883704;29;20481;-79
2023/09/02 04:35:05;;;;;;;0.00;0.00;;;;;;;;;;4883975;29;20104;-79
2023/09/02 04:37:31;;;;;;;0.10;0.10;;;;;;;;;;4883250;29;20064;-80
2023/09/02 04:39:57;;;;;;;0.08;0.03;;;;;;;;;;4853486;29;20084;-79
2023/09/02 04:42:23;;;;;;;0.30;0.00;;;;;;;;;;4883305;29;20482;-80
2023/09/02 04:44:52;;;;;;;0.00;0.00;;;;;;;;;;4883515;29;20041;-79
2023/09/02 04:47:19;;;;;;;0.00;0.00;;;;;;;;;;4883402;29;20508;-79
2023/09/02 04:49:45;;;;;;;0.00;0.00;;;;;;;;;;4867773;29;20049;-80
2023/09/02 04:52:11;;;;;;;0.25;0.10;;;;;;;;;;4883314;29;20046;-81
2023/09/02 04:54:37;;;;;;;0.17;0.00;;;;;;;;;;4867598;29;20110;-80
2023/09/02 04:57:03;;;;;;;0.10;0.00;;;;;;;;;;4867557;29;20045;-80
2023/09/02 04:59:29;;;;;;;0.00;0.00;;;;;;;;;;4867727;29;20049;-81
2023/09/02 05:01:55;;;;;;;0.00;0.00;;;;;;;;;;4883375;29;20083;-80
2023/09/02 05:04:21;;;;;;;0.13;0.13;;;;;;;;;;4867459;29;20049;-81
2023/09/02 05:06:48;;;;;;;0.00;0.00;;;;;;;;;;4867232;29;20049;-81
2023/09/02 05:09:14;;;;;;;0.00;0.00;;;;;;;;;;4883101;29;20057;-80
2023/09/02 05:11:40;;;;;;;0.00;0.00;;;;;;;;;;4867381;29;20509;-81
2023/09/02 05:14:06;;;;;;;0.08;0.00;;;;;;;;;;4882666;29;20057;-81
2023/09/02 05:16:32;;;;;;;0.10;0.00;;;;;;;;;;4883240;29;20055;-81
2023/09/02 05:18:58;;;;;;;0.35;0.00;;;;;;;;;;4882965;29;20483;-82
2023/09/02 05:21:24;;;;;;;0.00;0.00;;;;;;;;;;4883731;29;20040;-82
2023/09/02 05:23:50;;;;;;;1.75;0.10;;;;;;;;;;4883189;29;20049;-83
2023/09/02 05:26:16;;;;;;;0.10;0.00;;;;;;;;;;4882852;29;20454;-83
2023/09/02 05:28:42;;;;;;;0.22;0.10;;;;;;;;;;4882966;29;20060;-83
2023/09/02 05:31:08;;;;;;;0.03;0.03;;;;;;;;;;4867183;29;20049;-83
2023/09/02 05:33:34;;;;;;;0.10;0.00;;;;;;;;;;4868303;29;20057;-83
2023/09/02 05:36:00;;;;;;;0.32;0.20;;;;;;;;;;4881964;29;20042;-83
2023/09/02 05:38:26;;;;;;;0.28;0.13;;;;;;;;;;4867026;29;20474;-83
2023/09/02 05:40:53;;;;;;;0.00;0.00;;;;;;;;;;4882562;29;20049;-82
2023/09/02 05:43:19;;;;;;;0.00;0.00;;;;;;;;;;4867100;29;20049;-82
2023/09/02 05:45:47;;;;;;;0.52;0.20;;;;;;;;;;4882862;29;20109;-82
2023/09/02 05:48:13;;;;;;;0.00;0.00;;;;;;;;;;4867087;29;20060;-82
2023/09/02 05:50:39;;;;;;;0.00;0.00;;;;;;;;;;4866888;29;20041;-82
2023/09/02 05:53:05;;;;;;;0.10;0.10;;;;;;;;;;4866246;29;20170;-82
2023/09/02 05:55:32;;;;;;;0.00;0.00;;;;;;;;;;4851411;29;20061;-82
2023/09/02 05:57:58;;;;;;;0.88;0.00;;;;;;;;;;4881755;29;20055;-83
2023/09/02 06:00:24;;;;;;;0.00;0.00;;;;;;;;;;4866701;29;20053;-82
2023/09/02 06:02:50;;;;;;;0.20;0.15;;;;;;;;;;4866596;29;20049;-82
2023/09/02 06:05:16;;;;;;;0.20;0.20;;;;;;;;;;4882391;29;20049;-82
2023/09/02 06:07:42;;;;;;;0.73;0.45;;;;;;;;;;4866602;29;20045;-82
2023/09/02 06:10:09;;;;;;;1.08;0.22;;;;;;;;;;4866609;29;20064;-81
2023/09/02 06:12:35;;;;;;;0.13;0.10;;;;;;;;;;4882541;29;20053;-82
2023/09/02 06:15:02;;;;;;;0.85;0.20;;;;;;;;;;4866185;29;20063;-82
2023/09/02 06:17:30;;;;;;;0.45;0.10;;;;;;;;;;4881269;29;20053;-81
2023/09/02 06:19:57;;;;;;;0.80;0.00;;;;;;;;;;4866208;29;20057;-81
2023/09/02 06:22:23;;;;;;;0.00;0.00;;;;;;;;;;4881739;29;20128;-82
2023/09/02 06:24:49;;;;;;;0.00;0.00;;;;;;;;;;4866242;29;20052;-82
2023/09/02 06:27:15;;;;;;;0.20;0.20;;;;;;;;;;4866397;29;20092;-82
2023/09/02 06:29:45;;;;;;;0.10;0.00;;;;;;;;;;4850626;29;20505;-82
2023/09/02 06:32:11;;;;;;;0.00;0.00;;;;;;;;;;4882424;29;20053;-82
2023/09/02 06:34:37;;;;;;;0.03;0.03;;;;;;;;;;4866012;29;20451;-83
2023/09/02 06:37:03;;;;;;;0.10;0.10;;;;;;;;;;4866289;29;20057;-82
2023/09/02 06:39:29;;;;;;;0.00;0.00;;;;;;;;;;4881419;29;20053;-82
2023/09/02 06:41:55;;;;;;;0.00;0.00;;;;;;;;;;4881601;29;20074;-82
2023/09/02 06:44:21;;;;;;;0.05;0.00;;;;;;;;;;4865872;29;20049;-82
2023/09/02 06:46:47;;;;;;;0.00;0.00;;;;;;;;;;4882163;29;20048;-82
2023/09/02 06:49:14;;;;;;;0.10;0.00;;;;;;;;;;4880840;29;20052;-82
2023/09/02 06:51:40;;;;;;;0.05;0.05;;;;;;;;;;4866948;29;20057;-81
2023/09/02 06:54:06;;;;;;;0.30;0.08;;;;;;;;;;4865405;29;20509;-82
2023/09/02 06:56:32;;;;;;;0.10;0.00;;;;;;;;;;4880866;29;20508;-82
2023/09/02 06:58:58;;;;;;;0.00;0.00;;;;;;;;;;4865385;29;20052;-82
2023/09/02 07:01:26;;;;;;;0.00;0.00;;;;;;;;;;4881486;29;20161;-82
2023/09/02 07:03:53;;;;;;;0.03;0.00;;;;;;;;;;4880800;29;20056;-82
2023/09/02 07:06:19;;;;;;;0.47;0.10;;;;;;;;;;4865714;29;20041;-82
2023/09/02 07:08:46;;;;;;;0.00;0.00;;;;;;;;;;4881298;29;20459;-83
2023/09/02 07:11:13;;;;;;;2.55;0.52;;;;;;;;;;4881142;29;20490;-83
2023/09/02 07:13:39;;;;;;;0.00;0.00;;;;;;;;;;4881331;29;20104;-85
2023/09/02 07:16:06;;;;;;;0.28;0.28;;;;;;;;;;4880303;29;20052;-84
2023/09/02 07:18:32;;;;;;;0.08;0.08;;;;;;;;;;4880922;29;20045;-83
2023/09/02 07:20:59;;;;;;;0.52;0.08;;;;;;;;;;4864796;29;20088;-83
2023/09/02 07:23:26;;;;;;;0.20;0.13;;;;;;;;;;4882185;29;20570;-83
2023/09/02 07:25:52;;;;;;;0.10;0.00;;;;;;;;;;4880657;29;20092;-84
2023/09/02 07:28:18;;;;;;;0.10;0.10;;;;;;;;;;4865453;29;20057;-84
2023/09/02 07:30:44;;;;;;;0.20;0.00;;;;;;;;;;4881399;29;20071;-84
2023/09/02 07:33:10;;;;;;;0.10;0.10;;;;;;;;;;4880686;29;20188;-83
2023/09/02 07:35:38;;;;;;;0.25;0.08;;;;;;;;;;4865082;29;20056;-83
2023/09/02 07:38:04;;;;;;;0.10;0.00;;;;;;;;;;4879684;29;20125;-83
2023/09/02 07:40:31;;;;;;;0.00;0.00;;;;;;;;;;4880071;29;20053;-85
2023/09/02 07:42:58;;;;;;;1.75;0.20;;;;;;;;;;4880261;29;20501;-83
2023/09/02 07:45:24;;;;;;;0.30;0.17;;;;;;;;;;4881204;29;20049;-82
2023/09/02 07:47:50;;;;;;;0.00;0.00;;;;;;;;;;4881208;29;20049;-82
2023/09/02 07:50:16;;;;;;;0.35;0.15;;;;;;;;;;4880721;29;20084;-82
2023/09/02 07:52:43;;;;;;;0.00;0.00;;;;;;;;;;4879203;29;20100;-82
2023/09/02 07:55:09;;;;;;;0.00;0.00;;;;;;;;;;4864149;29;20056;-83
2023/09/02 07:57:35;;;;;;;0.00;0.00;;;;;;;;;;4880409;29;20049;-83
2023/09/02 08:00:01;;;;;;;0.15;0.15;;;;;;;;;;4879603;29;20052;-83
2023/09/02 08:02:27;;;;;;;0.10;0.10;;;;;;;;;;4879875;29;20045;-84
2023/09/02 08:04:53;;;;;;;0.10;0.00;;;;;;;;;;4880583;29;20084;-84
2023/09/02 08:07:19;;;;;;;0.35;0.00;;;;;;;;;;4880043;29;20064;-84
2023/09/02 08:09:48;;;;;;;0.30;0.00;;;;;;;;;;4879395;29;20060;-84
2023/09/02 08:12:14;;;;;;;1.85;0.00;;;;;;;;;;4880599;29;20052;-84
2023/09/02 08:14:40;;;;;;;0.00;0.00;;;;;;;;;;4864289;29;20140;-84
2023/09/02 08:17:06;;;;;;;0.38;0.17;;;;;;;;;;4880276;29;20094;-84
2023/09/02 08:19:33;;;;;;;0.40;0.22;;;;;;;;;;4880352;29;20045;-83
2023/09/02 08:21:59;;;;;;;0.08;0.00;;;;;;;;;;4878785;29;20080;-83
2023/09/02 08:24:25;;;;;;;0.10;0.00;;;;;;;;;;4878983;29;20136;-82
2023/09/02 08:26:51;;;;;;;0.73;0.00;;;;;;;;;;4880047;29;20056;-82
2023/09/02 08:29:17;;;;;;;0.20;0.10;;;;;;;;;;4880444;29;20136;-83
2023/09/02 08:31:43;;;;;;;0.05;0.05;;;;;;;;;;4879368;29;20055;-84
2023/09/02 08:34:09;;;;;;;0.85;0.38;;;;;;;;;;4880510;29;20049;-85
2023/09/02 08:36:35;;;;;;;0.52;0.43;;;;;;;;;;4849420;29;20090;-85
2023/09/02 08:39:01;;;;;;;0.13;0.13;;;;;;;;;;4880127;29;20056;-86
2023/09/02 08:41:31;;;;;;;0.10;0.10;;;;;;;;;;4880298;29;20045;-85
2023/09/02 08:44:01;;;;;;;0.50;0.10;;;;;;;;;;4880523;29;20394;-85
2023/09/02 08:46:27;;;;;;;0.85;0.35;;;;;;;;;;4880506;29;20053;-85
2023/09/02 08:48:57;;;;;;;0.00;0.00;;;;;;;;;;4879992;29;20440;-83
2023/09/02 08:51:24;;;;;;;0.10;0.03;;;;;;;;;;4880323;29;20049;-84
2023/09/02 08:53:55;;;;;;;0.00;0.00;;;;;;;;;;4880259;29;20049;-84
2023/09/02 08:56:24;;;;;;;0.38;0.10;;;;;;;;;;4879776;29;20450;-84
2023/09/02 08:58:52;;;;;;;0.00;0.00;;;;;;;;;;4880249;29;20052;-84
2023/09/02 09:01:19;;;;;;;0.00;0.00;;;;;;;;;;4879821;29;20375;-84
2023/09/02 09:03:49;;;;;;;0.85;0.60;;;;;;;;;;4864485;29;20059;-84
2023/09/02 09:06:17;;;;;;;0.30;0.10;;;;;;;;;;4879793;29;20144;-83
2023/09/02 09:08:43;;;;;;;0.20;0.20;;;;;;;;;;4880493;29;20049;-84
2023/09/02 09:11:10;;;;;;;0.00;0.00;;;;;;;;;;4880312;29;20493;-84
2023/09/02 09:13:37;;;;;;;0.08;0.00;;;;;;;;;;4864547;29;20501;-84
2023/09/02 09:16:03;;;;;;;0.25;0.00;;;;;;;;;;4879543;29;20124;-84
2023/09/02 09:18:30;;;;;;;0.05;0.00;;;;;;;;;;4883158;29;20061;-84
2023/09/02 09:20:56;;;;;;;1.00;0.00;;;;;;;;;;4883435;29;20049;-85
2023/09/02 09:23:22;;;;;;;0.10;0.10;;;;;;;;;;4882938;29;20566;-85
2023/09/02 09:25:50;;;;;;;0.00;0.00;;;;;;;;;;4867335;29;20136;-84
2023/09/02 09:28:16;;;;;;;0.35;0.20;;;;;;;;;;4867591;29;20084;-84
2023/09/02 09:30:42;;;;;;;0.00;0.00;;;;;;;;;;4883174;29;20402;-84
2023/09/02 09:33:08;;;;;;;0.35;0.10;;;;;;;;;;4867467;29;20088;-84
2023/09/02 09:35:35;;;;;;;1.55;0.60;;;;;;;;;;4852337;29;20053;-84
2023/09/02 09:38:02;;;;;;;0.08;0.08;;;;;;;;;;4882589;29;20146;-84
2023/09/02 09:40:34;;;;;;;0.10;0.10;;;;;;;;;;4866873;29;20060;-85
2023/09/02 09:43:00;;;;;;;0.43;0.20;;;;;;;;;;4882232;29;20140;-85
2023/09/02 09:45:27;;;;;;;0.00;0.00;;;;;;;;;;4882427;29;20186;-85
2023/09/02 09:47:56;;;;;;;0.30;0.10;;;;;;;;;;4882261;29;20063;-85
2023/09/02 09:50:22;;;;;;;0.00;0.00;;;;;;;;;;4883635;29;20049;-85
2023/09/02 09:53:02;;;;;;;0.08;0.00;;;;;;;;;;4882974;29;20060;-86
2023/09/02 09:55:33;;;;;;;0.10;0.10;;;;;;;;;;4866674;29;20113;-86
2023/09/02 09:57:59;;;;;;;0.63;0.00;;;;;;;;;;4881714;29;20486;-85
2023/09/02 10:00:27;;;;;;;0.00;0.00;;;;;;;;;;4881868;29;20090;-84
2023/09/02 10:02:53;;;;;;;0.10;0.10;;;;;;;;;;4882847;29;20424;-83
2023/09/02 10:05:29;;;;;;;0.30;0.25;;;;;;;;;;4882619;29;20132;-83
2023/09/02 10:08:00;;;;;;;0.00;0.00;;;;;;;;;;4882015;29;20055;-84
2023/09/02 10:10:30;;;;;;;0.10;0.10;;;;;;;;;;4881846;29;20409;-83
2023/09/02 10:12:57;;;;;;;0.15;0.00;;;;;;;;;;4881992;29;20056;-84
2023/09/02 10:15:27;;;;;;;1.75;0.28;;;;;;;;;;4866232;29;20057;-84
2023/09/02 10:18:00;;;;;;;0.32;0.10;;;;;;;;;;4881414;29;20068;-83
2023/09/02 10:20:28;;;;;;;0.20;0.10;;;;;;;;;;4881729;29;20053;-83
2023/09/02 10:22:54;;;;;;;0.00;0.00;;;;;;;;;;4881472;29;20386;-82
2023/09/02 10:25:24;;;;;;;0.00;0.00;;;;;;;;;;4866573;29;20067;-83
2023/09/02 10:28:07;;;;;;;0.03;0.03;;;;;;;;;;4880766;29;20071;-82
2023/09/02 10:30:46;;;;;;;0.00;0.00;;;;;;;;;;4881376;29;20049;-82
2023/09/02 10:33:20;;;;;;;0.00;0.00;;;;;;;;;;4882098;29;20061;-82
2023/09/02 10:35:50;;;;;;;0.37;0.37;;;;;;;;;;4882906;29;20099;-81
2023/09/02 10:38:20;;;;;;;1.27;0.10;;;;;;;;;;4880682;29;20056;-82
2023/09/02 10:40:49;;;;;;;0.22;0.10;;;;;;;;;;4882243;29;20052;-82
2023/09/02 10:43:16;;;;;;;0.20;0.20;;;;;;;;;;4866405;29;20055;-82
2023/09/02 10:45:44;;;;;;;0.65;0.40;;;;;;;;;;4882618;29;20091;-81
2023/09/02 10:48:10;;;;;;;0.00;0.00;;;;;;;;;;4881509;29;20064;-81
2023/09/02 10:50:36;;;;;;;0.43;0.30;;;;;;;;;;4881284;29;20121;-81
2023/09/02 10:53:02;;;;;;;0.70;0.17;;;;;;;;;;4882383;29;20099;-81
2023/09/02 10:55:31;;;;;;;0.03;0.03;;;;;;;;;;4865932;29;20118;-81
2023/09/02 10:57:59;;;;;;;0.10;0.10;;;;;;;;;;4864546;29;20052;-81
2023/09/02 11:00:26;;;;;;;0.60;0.13;;;;;;;;;;4880860;29;20193;-81
2023/09/02 11:02:53;;;;;;;0.05;0.05;;;;;;;;;;4865600;29;20056;-80
2023/09/02 11:05:20;;;;;;;0.22;0.22;;;;;;;;;;4881340;29;20092;-81
2023/09/02 11:07:47;;;;;;;0.00;0.00;;;;;;;;;;4865128;29;20053;-81
2023/09/02 11:10:14;;;;;;;0.00;0.00;;;;;;;;;;4882044;29;20075;-80
2023/09/02 11:12:59;;;;;;;0.10;0.08;;;;;;;;;;4881333;29;20107;-80
2023/09/02 11:15:24;;;;;;;;;;;;;;;;;;4880935;29;20045;-80
2023/09/02 11:17:51;;;;;;;0.00;0.00;;;;;;;;;;4880387;29;19930;-81
2023/09/02 11:20:19;;;;;;;0.03;0.03;;;;;;;;;;4880201;29;20092;-81
2023/09/02 11:22:49;;;;;;;0.00;0.00;;;;;;;;;;4864785;29;20510;-80
2023/09/02 11:25:30;;;;;;;0.10;0.10;;;;;;;;;;4850004;29;20053;-80
2023/09/02 11:27:57;;;;;;;2.22;0.25;;;;;;;;;;4864556;29;20136;-81
2023/09/02 11:30:24;;;;;;;0.00;0.00;;;;;;;;;;4865794;29;20049;-81
2023/09/02 11:32:50;;;;;;;0.00;0.00;;;;;;;;;;4864743;29;20053;-81
2023/09/02 11:35:22;;;;;;;0.00;0.00;;;;;;;;;;4864572;29;20092;-81
2023/09/02 11:37:48;;;;;;;0.00;0.00;;;;;;;;;;4879374;29;20065;-81
2023/09/02 11:40:14;;;;;;;0.00;0.00;;;;;;;;;;4880696;29;20482;-81
2023/09/02 11:42:50;;;;;;;0.00;0.00;;;;;;;;;;4864681;29;20064;-82
2023/09/02 11:45:16;;;;;;;0.88;0.20;;;;;;;;;;4879888;29;20092;-81
2023/09/02 11:47:43;;;;;;;0.00;0.00;;;;;;;;;;4880109;29;20085;-81
2023/09/02 11:50:16;;;;;;;2.25;0.22;;;;;;;;;;4879942;29;20052;-82
2023/09/02 11:52:43;;;;;;;0.00;0.00;;;;;;;;;;4880158;29;20053;-82
2023/09/02 11:55:09;;;;;;;0.47;0.20;;;;;;;;;;4864552;29;20483;-81
2023/09/02 11:57:35;;;;;;;0.00;0.00;;;;;;;;;;4864420;29;20048;-81
2023/09/02 12:00:01;;;;;;;0.00;0.00;;;;;;;;;;4879832;29;20048;-81
2023/09/02 12:02:27;;;;;;;0.10;0.10;;;;;;;;;;4879839;29;20093;-81
2023/09/02 12:04:55;;;;;;;0.10;0.10;;;;;;;;;;4865037;29;20496;-82
2023/09/02 12:07:21;;;;;;;0.30;0.10;;;;;;;;;;4880629;29;20079;-81
2023/09/02 12:09:48;;;;;;;0.55;0.00;;;;;;;;;;4879622;29;20053;-81
2023/09/02 12:12:15;;;;;;;0.00;0.00;;;;;;;;;;4864101;29;20144;-81
2023/09/02 12:14:41;;;;;;;0.00;0.00;;;;;;;;;;4879837;29;20053;-82
2023/09/02 12:17:08;;;;;;;0.00;0.00;;;;;;;;;;4864191;29;20128;-82
2023/09/02 12:19:37;;;;;;;0.00;0.00;;;;;;;;;;4880151;29;20045;-82
2023/09/02 12:22:04;;;;;;;0.00;0.00;;;;;;;;;;4864168;29;20045;-82
2023/09/02 12:24:30;;;;;;;0.00;0.00;;;;;;;;;;4880035;29;20053;-82
2023/09/02 12:26:57;;;;;;;0.05;0.00;;;;;;;;;;4880076;29;20063;-82
2023/09/02 12:29:24;;;;;;;0.10;0.10;;;;;;;;;;4864322;29;20095;-82
2023/09/02 12:31:51;;;;;;;0.22;0.22;;;;;;;;;;4880782;29;20057;-82
2023/09/02 12:34:17;;;;;;;0.00;0.00;;;;;;;;;;4864409;29;20057;-82
2023/09/02 12:36:43;;;;;;;0.00;0.00;;;;;;;;;;4864662;29;20069;-82
2023/09/02 12:39:21;;;;;;;0.10;0.08;;;;;;;;;;4850419;29;20120;-82
2023/09/02 12:41:47;;;;;;;0.17;0.17;;;;;;;;;;4880432;29;20057;-82
2023/09/02 12:44:19;;;;;;;0.10;0.10;;;;;;;;;;4880221;29;20474;-82
2023/09/02 12:46:48;;;;;;;0.10;0.00;;;;;;;;;;4879761;29;20101;-81
2023/09/02 12:49:18;;;;;;;0.00;0.00;;;;;;;;;;4863692;29;20383;-82
2023/09/02 12:51:44;;;;;;;0.00;0.00;;;;;;;;;;4865983;29;20496;-81
2023/09/02 12:54:11;;;;;;;0.03;0.00;;;;;;;;;;4883472;29;20056;-82
2023/09/02 12:56:37;;;;;;;0.90;0.40;;;;;;;;;;4867394;29;20048;-82
2023/09/02 12:59:04;;;;;;;0.15;0.13;;;;;;;;;;4884120;29;20059;-81
2023/09/02 13:01:30;;;;;;;0.13;0.03;;;;;;;;;;4867798;29;20088;-82
2023/09/02 13:03:57;;;;;;;0.10;0.03;;;;;;;;;;4852275;29;20057;-81
2023/09/02 13:06:25;;;;;;;0.15;0.15;;;;;;;;;;4868053;29;20055;-81
2023/09/02 13:08:51;;;;;;;0.00;0.00;;;;;;;;;;4867932;29;20048;-81
2023/09/02 13:11:18;;;;;;;0.08;0.08;;;;;;;;;;4883095;29;20041;-81
2023/09/02 13:13:44;;;;;;;0.00;0.00;;;;;;;;;;4884150;29;20057;-81
2023/09/02 13:16:10;;;;;;;0.00;0.00;;;;;;;;;;4867258;29;20140;-82
2023/09/02 13:18:37;;;;;;;0.10;0.00;;;;;;;;;;4883351;29;20123;-81
2023/09/02 13:21:04;;;;;;;0.13;0.03;;;;;;;;;;4884659;29;20049;-81
2023/09/02 13:23:30;;;;;;;0.22;0.17;;;;;;;;;;4867205;29;20057;-82
2023/09/02 13:25:56;;;;;;;0.03;0.03;;;;;;;;;;4883170;29;20045;-82
2023/09/02 13:28:24;;;;;;;0.17;0.17;;;;;;;;;;4884187;29;20513;-82
2023/09/02 13:30:50;;;;;;;0.00;0.00;;;;;;;;;;4882500;29;20049;-82
2023/09/02 13:33:16;;;;;;;0.73;0.28;;;;;;;;;;4882686;29;20064;-82
2023/09/02 13:35:44;;;;;;;0.10;0.10;;;;;;;;;;4883780;29;20045;-82
2023/09/02 13:38:10;;;;;;;0.25;0.25;;;;;;;;;;4882008;29;20065;-82
2023/09/02 13:40:36;;;;;;;0.08;0.00;;;;;;;;;;4868310;29;20060;-81
2023/09/02 13:43:12;;;;;;;0.00;0.00;;;;;;;;;;4882261;29;20059;-81
2023/09/02 13:45:40;;;;;;;0.00;0.00;;;;;;;;;;4883333;29;20140;-81
2023/09/02 13:48:09;;;;;;;0.03;0.03;;;;;;;;;;4882072;29;20135;-81
2023/09/02 13:50:36;;;;;;;0.15;0.15;;;;;;;;;;4882322;29;20060;-82
2023/09/02 13:53:02;;;;;;;0.00;0.00;;;;;;;;;;4882459;29;20060;-81
2023/09/02 13:55:49;;;;;;;0.68;0.25;;;;;;;;;;4883419;29;20351;-82
2023/09/02 13:58:19;;;;;;;0.85;0.20;;;;;;;;;;4882072;29;20048;-82
2023/09/02 14:00:45;;;;;;;0.00;0.00;;;;;;;;;;4866896;29;20049;-82
2023/09/02 14:03:21;;;;;;;0.00;0.00;;;;;;;;;;4866309;29;20060;-81
2023/09/02 14:05:48;;;;;;;0.08;0.00;;;;;;;;;;4882118;29;20125;-81
2023/09/02 14:08:17;;;;;;;0.10;0.10;;;;;;;;;;4882693;29;20052;-82
2023/09/02 14:10:44;;;;;;;0.00;0.00;;;;;;;;;;4881848;29;20061;-81
2023/09/02 14:13:10;;;;;;;0.00;0.00;;;;;;;;;;4882541;29;20106;-82
2023/09/02 14:15:36;;;;;;;0.10;0.10;;;;;;;;;;4866518;29;20061;-81
2023/09/02 14:18:03;;;;;;;0.10;0.08;;;;;;;;;;4881275;29;20049;-81
2023/09/02 14:20:29;;;;;;;0.00;0.00;;;;;;;;;;4883509;29;20128;-81
2023/09/02 14:22:55;;;;;;;0.03;0.03;;;;;;;;;;4882222;29;20052;-81
2023/09/02 14:25:21;;;;;;;0.10;0.05;;;;;;;;;;4865963;29;20052;-81
2023/09/02 14:27:47;;;;;;;0.13;0.13;;;;;;;;;;4882183;29;20081;-81
2023/09/02 14:30:13;;;;;;;0.00;0.00;;;;;;;;;;4867076;29;20462;-81
2023/09/02 14:32:39;;;;;;;0.00;0.00;;;;;;;;;;4850927;29;20052;-81
2023/09/02 14:35:06;;;;;;;0.03;0.00;;;;;;;;;;4881644;29;20109;-81
2023/09/02 14:37:32;;;;;;;0.00;0.00;;;;;;;;;;4880540;29;20065;-81
2023/09/02 14:39:58;;;;;;;0.45;0.00;;;;;;;;;;4881518;29;20131;-81
2023/09/02 14:42:24;;;;;;;0.03;0.03;;;;;;;;;;4882042;29;20057;-81